Time;durP1;ratioP1;P1;durP2;ratioP2;P2;SDS_P1;SDS_P2;PMS_P1;PMS_P2;Temp;Humidity;BMP_temperature;BMP_pressure;BME280_temperature;BME280_humidity;BME280_pressure;Samples;Min_cycle;Max_cycle;Signal;HPM_P1;HPM_P2
2023/08/22 00:00:58;;;;;;;12.27;7.40;;;;;;;;;;4980133;28;20104;-87
2023/08/22 00:03:23;;;;;;;17.98;7.68;;;;;;;;;;4979963;28;20140;-88
2023/08/22 00:05:48;;;;;;;10.23;7.53;;;;;;;;;;4980423;28;20049;-87
2023/08/22 00:08:14;;;;;;;8.85;6.90;;;;;;;;;;4986128;28;20034;-88
2023/08/22 00:10:40;;;;;;;9.73;7.18;;;;;;;;;;4999634;28;20460;-88
2023/08/22 00:13:06;;;;;;;10.90;7.07;;;;;;;;;;4998983;28;20038;-87
2023/08/22 00:15:32;;;;;;;14.75;7.95;;;;;;;;;;4999005;28;20385;-88
2023/08/22 00:17:57;;;;;;;13.65;7.72;;;;;;;;;;4984875;28;20015;-88
2023/08/22 00:20:23;;;;;;;9.68;7.18;;;;;;;;;;4979357;28;20453;-87
2023/08/22 00:22:49;;;;;;;11.63;7.97;;;;;;;;;;4981109;28;20034;-87
2023/08/22 00:25:14;;;;;;;11.75;7.35;;;;;;;;;;4979462;28;20089;-86
2023/08/22 00:27:39;;;;;;;11.63;7.45;;;;;;;;;;4985198;28;20429;-87
2023/08/22 00:30:05;;;;;;;15.23;6.88;;;;;;;;;;5006768;28;20029;-86
2023/08/22 00:32:31;;;;;;;9.35;6.85;;;;;;;;;;5026985;28;20131;-87
2023/08/22 00:34:57;;;;;;;8.88;7.05;;;;;;;;;;5025238;28;20034;-87
2023/08/22 00:37:22;;;;;;;14.23;6.93;;;;;;;;;;5007542;28;20037;-87
2023/08/22 00:39:47;;;;;;;8.70;6.55;;;;;;;;;;5005528;28;20784;-88
2023/08/22 00:42:13;;;;;;;10.63;7.18;;;;;;;;;;5007115;28;20555;-86
2023/08/22 00:44:38;;;;;;;18.85;7.45;;;;;;;;;;5006282;28;20026;-87
2023/08/22 00:47:04;;;;;;;10.30;7.20;;;;;;;;;;5005448;28;20042;-86
2023/08/22 00:49:31;;;;;;;10.50;6.65;;;;;;;;;;5006973;28;20034;-87
2023/08/22 00:51:59;;;;;;;10.68;7.13;;;;;;;;;;5006647;28;20144;-87
2023/08/22 00:54:29;;;;;;;12.95;7.05;;;;;;;;;;4992136;28;20323;-88
2023/08/22 00:56:55;;;;;;;11.80;7.45;;;;;;;;;;4983129;28;20511;-89
2023/08/22 00:59:21;;;;;;;12.73;7.32;;;;;;;;;;4982039;28;20093;-90
2023/08/22 01:01:49;;;;;;;10.73;7.75;;;;;;;;;;5000230;28;20574;-89
2023/08/22 01:04:15;;;;;;;9.07;6.60;;;;;;;;;;4988099;28;20090;-91
2023/08/22 01:06:43;;;;;;;10.60;7.35;;;;;;;;;;4984527;28;20030;-88
2023/08/22 01:09:27;;;;;;;12.60;7.47;;;;;;;;;;4982847;28;20041;-90
2023/08/22 01:11:58;;;;;;;12.30;7.35;;;;;;;;;;4981394;28;20026;-86
2023/08/22 01:14:27;;;;;;;16.58;7.82;;;;;;;;;;4994772;28;20318;-87
2023/08/22 01:16:52;;;;;;;11.35;7.05;;;;;;;;;;5003177;28;20048;-89
2023/08/22 01:19:18;;;;;;;12.45;7.80;;;;;;;;;;5026456;28;20102;-87
2023/08/22 01:21:51;;;;;;;13.85;7.43;;;;;;;;;;5005022;28;20043;-89
2023/08/22 01:24:16;;;;;;;13.73;7.15;;;;;;;;;;4986963;28;20477;-88
2023/08/22 01:26:43;;;;;;;9.38;7.22;;;;;;;;;;4997096;28;20024;-87
2023/08/22 01:29:10;;;;;;;13.32;7.55;;;;;;;;;;5004580;28;20045;-88
2023/08/22 01:31:48;;;;;;;14.00;7.43;;;;;;;;;;5012334;28;20498;-86
2023/08/22 01:34:20;;;;;;;25.27;8.00;;;;;;;;;;5024522;28;20091;-86
2023/08/22 01:36:46;;;;;;;17.38;7.10;;;;;;;;;;5024724;28;20045;-87
2023/08/22 01:39:14;;;;;;;11.98;6.78;;;;;;;;;;5022347;28;20056;-88
2023/08/22 01:41:40;;;;;;;17.58;7.05;;;;;;;;;;5023360;28;20278;-86
2023/08/22 01:44:05;;;;;;;10.13;6.30;;;;;;;;;;5022831;28;20060;-88
2023/08/22 01:46:31;;;;;;;11.63;6.15;;;;;;;;;;5021619;28;20034;-89
2023/08/22 01:48:56;;;;;;;13.18;6.18;;;;;;;;;;5020839;28;20508;-87
2023/08/22 01:51:22;;;;;;;14.20;6.85;;;;;;;;;;5021096;28;20032;-88
2023/08/22 01:53:47;;;;;;;15.65;6.65;;;;;;;;;;5006560;28;20026;-89
2023/08/22 01:56:12;;;;;;;15.57;6.60;;;;;;;;;;5004461;28;20528;-86
2023/08/22 01:58:38;;;;;;;12.40;6.45;;;;;;;;;;4997125;28;20119;-84
2023/08/22 02:01:11;;;;;;;10.13;6.50;;;;;;;;;;5002344;28;20090;-87
2023/08/22 02:03:36;;;;;;;15.55;6.18;;;;;;;;;;4998588;28;20229;-86
2023/08/22 02:06:02;;;;;;;11.43;6.63;;;;;;;;;;5014072;28;20915;-85
2023/08/22 02:08:28;;;;;;;11.00;6.15;;;;;;;;;;5004571;28;20057;-86
2023/08/22 02:10:53;;;;;;;9.07;6.20;;;;;;;;;;5002185;28;20425;-86
2023/08/22 02:13:19;;;;;;;11.80;6.75;;;;;;;;;;4991680;28;20050;-85
2023/08/22 02:15:44;;;;;;;11.10;6.95;;;;;;;;;;5001059;28;20046;-85
2023/08/22 02:18:09;;;;;;;26.67;7.47;;;;;;;;;;5005343;28;20531;-87
2023/08/22 02:20:35;;;;;;;12.25;6.60;;;;;;;;;;5009581;28;20026;-87
2023/08/22 02:23:02;;;;;;;8.40;6.60;;;;;;;;;;5008093;28;20082;-86
2023/08/22 02:25:28;;;;;;;10.35;7.18;;;;;;;;;;5003732;28;20610;-86
2023/08/22 02:27:53;;;;;;;18.23;6.85;;;;;;;;;;5007279;28;20626;-86
2023/08/22 02:30:18;;;;;;;15.00;7.05;;;;;;;;;;4997259;28;20030;-86
2023/08/22 02:32:44;;;;;;;12.07;7.03;;;;;;;;;;5003544;28;20109;-85
2023/08/22 02:35:09;;;;;;;11.05;6.90;;;;;;;;;;5009711;28;20053;-86
2023/08/22 02:37:34;;;;;;;9.38;7.18;;;;;;;;;;5006141;28;20378;-87
2023/08/22 02:40:00;;;;;;;16.90;6.90;;;;;;;;;;5005327;28;20045;-86
2023/08/22 02:42:25;;;;;;;10.77;6.63;;;;;;;;;;5007963;28;20399;-85
2023/08/22 02:44:51;;;;;;;11.30;6.85;;;;;;;;;;5007087;28;20577;-86
2023/08/22 02:47:16;;;;;;;10.45;6.75;;;;;;;;;;5001971;28;20046;-86
2023/08/22 02:49:41;;;;;;;11.23;7.00;;;;;;;;;;5003497;28;20046;-86
2023/08/22 02:52:06;;;;;;;16.30;6.38;;;;;;;;;;5002381;28;20071;-86
2023/08/22 02:54:32;;;;;;;17.38;6.68;;;;;;;;;;5006902;28;20041;-86
2023/08/22 02:56:57;;;;;;;10.18;6.18;;;;;;;;;;5005500;28;20054;-85
2023/08/22 02:59:22;;;;;;;9.98;6.15;;;;;;;;;;5004420;28;20048;-86
2023/08/22 03:01:48;;;;;;;8.15;6.60;;;;;;;;;;5001433;28;20042;-87
2023/08/22 03:04:13;;;;;;;12.05;5.65;;;;;;;;;;5008775;28;20043;-85
2023/08/22 03:06:38;;;;;;;14.65;5.72;;;;;;;;;;5001721;28;20038;-86
2023/08/22 03:09:04;;;;;;;10.43;6.55;;;;;;;;;;5005639;28;20037;-87
2023/08/22 03:11:29;;;;;;;14.85;6.55;;;;;;;;;;5007910;28;20033;-87
2023/08/22 03:13:54;;;;;;;10.77;6.10;;;;;;;;;;5007439;28;20038;-87
2023/08/22 03:16:20;;;;;;;12.00;6.53;;;;;;;;;;5003662;28;20052;-86
2023/08/22 03:18:46;;;;;;;11.25;6.43;;;;;;;;;;5003928;28;20046;-86
2023/08/22 03:21:11;;;;;;;10.85;6.15;;;;;;;;;;5005784;28;20022;-87
2023/08/22 03:23:37;;;;;;;8.90;6.20;;;;;;;;;;4998328;28;20538;-87
2023/08/22 03:26:02;;;;;;;7.80;6.05;;;;;;;;;;4996436;28;20052;-86
2023/08/22 03:28:29;;;;;;;7.45;6.40;;;;;;;;;;5004250;28;20085;-86
2023/08/22 03:30:59;;;;;;;12.50;6.00;;;;;;;;;;5009054;28;20049;-86
2023/08/22 03:33:25;;;;;;;8.50;6.07;;;;;;;;;;5005620;28;20042;-87
2023/08/22 03:35:51;;;;;;;8.40;5.90;;;;;;;;;;5012203;28;20030;-86
2023/08/22 03:38:17;;;;;;;11.75;6.45;;;;;;;;;;4998954;28;20031;-86
2023/08/22 03:40:42;;;;;;;6.57;5.63;;;;;;;;;;5009027;28;20100;-86
2023/08/22 03:43:07;;;;;;;9.95;6.95;;;;;;;;;;5002536;28;20101;-86
2023/08/22 03:45:33;;;;;;;11.27;7.00;;;;;;;;;;5002859;28;20042;-86
2023/08/22 03:48:03;;;;;;;14.00;7.35;;;;;;;;;;5001095;28;20092;-86
2023/08/22 03:50:31;;;;;;;7.72;6.13;;;;;;;;;;5004325;28;20768;-85
2023/08/22 03:52:57;;;;;;;7.32;5.97;;;;;;;;;;5007547;28;20045;-86
2023/08/22 03:55:22;;;;;;;11.68;6.40;;;;;;;;;;4997074;28;20189;-86
2023/08/22 03:57:48;;;;;;;13.40;6.40;;;;;;;;;;4998006;28;20042;-87
2023/08/22 04:00:14;;;;;;;14.43;6.10;;;;;;;;;;5005397;28;20528;-86
2023/08/22 04:02:39;;;;;;;10.75;6.38;;;;;;;;;;5002517;28;20028;-87
2023/08/22 04:05:04;;;;;;;12.35;6.10;;;;;;;;;;5002385;28;20718;-87
2023/08/22 04:07:30;;;;;;;10.05;5.63;;;;;;;;;;4997785;28;20045;-86
2023/08/22 04:09:55;;;;;;;13.45;6.25;;;;;;;;;;5005061;28;20034;-86
2023/08/22 04:12:21;;;;;;;12.88;6.40;;;;;;;;;;5005249;28;20398;-87
2023/08/22 04:14:46;;;;;;;13.25;6.60;;;;;;;;;;5006193;28;20034;-86
2023/08/22 04:17:11;;;;;;;15.45;6.43;;;;;;;;;;5004808;28;20039;-87
2023/08/22 04:19:38;;;;;;;9.60;6.05;;;;;;;;;;4997640;28;20100;-87
2023/08/22 04:22:04;;;;;;;7.32;5.55;;;;;;;;;;5006993;28;20071;-87
2023/08/22 04:24:29;;;;;;;14.65;6.68;;;;;;;;;;5010218;28;20452;-87
2023/08/22 04:26:54;;;;;;;12.85;6.20;;;;;;;;;;4998695;28;20045;-86
2023/08/22 04:29:20;;;;;;;15.85;7.30;;;;;;;;;;5006379;28;20045;-86
2023/08/22 04:31:45;;;;;;;10.38;5.78;;;;;;;;;;5011134;28;20038;-86
2023/08/22 04:34:10;;;;;;;10.43;6.28;;;;;;;;;;5011491;28;20782;-86
2023/08/22 04:36:35;;;;;;;8.52;5.55;;;;;;;;;;4997468;28;20114;-86
2023/08/22 04:39:01;;;;;;;8.65;5.88;;;;;;;;;;5009263;28;20052;-85
2023/08/22 04:41:26;;;;;;;10.27;5.82;;;;;;;;;;5000431;28;20042;-86
2023/08/22 04:43:52;;;;;;;13.25;6.18;;;;;;;;;;5004448;28;20049;-86
2023/08/22 04:46:17;;;;;;;12.07;6.35;;;;;;;;;;5007000;28;20117;-86
2023/08/22 04:48:42;;;;;;;10.60;5.85;;;;;;;;;;5005596;28;20030;-86
2023/08/22 04:51:07;;;;;;;10.43;6.22;;;;;;;;;;5002863;28;20034;-86
2023/08/22 04:53:33;;;;;;;10.43;6.10;;;;;;;;;;5002770;28;20032;-86
2023/08/22 04:55:58;;;;;;;13.02;6.10;;;;;;;;;;5004206;28;20050;-85
2023/08/22 04:58:23;;;;;;;8.80;6.03;;;;;;;;;;5008194;28;20504;-86
2023/08/22 05:00:49;;;;;;;12.23;6.07;;;;;;;;;;5006507;28;20047;-85
2023/08/22 05:03:19;;;;;;;14.15;6.10;;;;;;;;;;5008605;28;20029;-85
2023/08/22 05:05:45;;;;;;;7.45;5.60;;;;;;;;;;5014436;28;20064;-85
2023/08/22 05:08:10;;;;;;;10.02;5.90;;;;;;;;;;5017614;28;20125;-85
2023/08/22 05:10:35;;;;;;;21.20;6.95;;;;;;;;;;5012103;28;20053;-85
2023/08/22 05:13:01;;;;;;;9.43;6.20;;;;;;;;;;5005866;28;20045;-86
2023/08/22 05:15:26;;;;;;;12.50;6.18;;;;;;;;;;4997038;28;20488;-87
2023/08/22 05:17:51;;;;;;;6.70;6.00;;;;;;;;;;5002505;28;20408;-86
2023/08/22 05:20:17;;;;;;;13.02;6.13;;;;;;;;;;5005315;28;20206;-86
2023/08/22 05:22:42;;;;;;;9.48;5.50;;;;;;;;;;5006387;28;20501;-86
2023/08/22 05:25:08;;;;;;;11.25;5.22;;;;;;;;;;5005618;28;20046;-86
2023/08/22 05:27:33;;;;;;;7.78;5.55;;;;;;;;;;5003080;28;20041;-87
2023/08/22 05:29:59;;;;;;;6.15;5.55;;;;;;;;;;5006475;28;20022;-87
2023/08/22 05:32:24;;;;;;;11.20;5.28;;;;;;;;;;5003203;28;20046;-87
2023/08/22 05:34:49;;;;;;;9.48;5.53;;;;;;;;;;5006176;28;20050;-87
2023/08/22 05:37:14;;;;;;;8.93;5.40;;;;;;;;;;5010146;28;20038;-86
2023/08/22 05:39:40;;;;;;;12.75;6.15;;;;;;;;;;5006943;28;20050;-87
2023/08/22 05:42:05;;;;;;;10.07;5.75;;;;;;;;;;5010332;28;20026;-87
2023/08/22 05:44:32;;;;;;;7.65;5.18;;;;;;;;;;5005009;28;20022;-86
2023/08/22 05:46:58;;;;;;;8.63;5.10;;;;;;;;;;5012434;28;20098;-85
2023/08/22 05:49:23;;;;;;;6.85;4.80;;;;;;;;;;5019091;28;20046;-86
2023/08/22 05:51:49;;;;;;;5.65;4.85;;;;;;;;;;5011907;28;20039;-86
2023/08/22 05:54:14;;;;;;;8.35;5.07;;;;;;;;;;5015000;28;20023;-87
2023/08/22 05:56:39;;;;;;;7.25;4.90;;;;;;;;;;5016336;28;20026;-86
2023/08/22 05:59:05;;;;;;;7.13;5.47;;;;;;;;;;5006284;28;20086;-87
2023/08/22 06:01:30;;;;;;;15.43;5.53;;;;;;;;;;5007370;28;20038;-88
2023/08/22 06:03:55;;;;;;;6.05;4.57;;;;;;;;;;5009677;28;20052;-87
2023/08/22 06:06:21;;;;;;;10.23;5.13;;;;;;;;;;5006228;28;20361;-88
2023/08/22 06:08:46;;;;;;;12.25;5.00;;;;;;;;;;5008832;28;20468;-88
2023/08/22 06:11:12;;;;;;;9.23;5.28;;;;;;;;;;5001643;28;20140;-86
2023/08/22 06:13:37;;;;;;;10.30;4.97;;;;;;;;;;4992847;28;20056;-87
2023/08/22 06:16:02;;;;;;;9.30;5.57;;;;;;;;;;4991724;28;20612;-86
2023/08/22 06:18:28;;;;;;;16.67;5.22;;;;;;;;;;4992791;28;20125;-87
2023/08/22 06:21:00;;;;;;;6.75;4.70;;;;;;;;;;4999267;28;20038;-87
2023/08/22 06:23:26;;;;;;;13.95;5.80;;;;;;;;;;4992496;28;20223;-87
2023/08/22 06:25:51;;;;;;;7.95;5.07;;;;;;;;;;4999138;28;20026;-86
2023/08/22 06:28:16;;;;;;;8.80;5.13;;;;;;;;;;4994534;28;20069;-86
2023/08/22 06:30:42;;;;;;;7.72;4.57;;;;;;;;;;4995409;28;20037;-86
2023/08/22 06:33:07;;;;;;;7.93;4.70;;;;;;;;;;4995618;28;20094;-87
2023/08/22 06:35:33;;;;;;;7.82;4.55;;;;;;;;;;4997328;28;20106;-87
2023/08/22 06:37:58;;;;;;;8.75;4.25;;;;;;;;;;4997126;28;20057;-87
2023/08/22 06:40:23;;;;;;;8.85;4.07;;;;;;;;;;4994761;28;20038;-87
2023/08/22 06:42:49;;;;;;;6.82;4.60;;;;;;;;;;4992302;28;20034;-88
2023/08/22 06:45:14;;;;;;;8.63;4.70;;;;;;;;;;4993762;28;20133;-86
2023/08/22 06:47:40;;;;;;;14.98;4.65;;;;;;;;;;4998298;28;20026;-87
2023/08/22 06:50:07;;;;;;;8.23;4.68;;;;;;;;;;4989266;28;20060;-87
2023/08/22 06:52:32;;;;;;;9.18;4.82;;;;;;;;;;4989758;28;20042;-87
2023/08/22 06:54:58;;;;;;;10.30;4.45;;;;;;;;;;4995378;28;20042;-87
2023/08/22 06:57:23;;;;;;;9.18;4.18;;;;;;;;;;4999317;28;20120;-87
2023/08/22 06:59:49;;;;;;;11.07;4.65;;;;;;;;;;4987263;28;20034;-87
2023/08/22 07:02:15;;;;;;;6.95;5.00;;;;;;;;;;4986460;28;20047;-88
2023/08/22 07:04:40;;;;;;;7.30;4.13;;;;;;;;;;4992145;28;20232;-87
2023/08/22 07:07:05;;;;;;;7.80;4.60;;;;;;;;;;4997672;28;20038;-88
2023/08/22 07:09:31;;;;;;;7.18;4.32;;;;;;;;;;4989277;28;20090;-86
2023/08/22 07:11:56;;;;;;;7.28;4.50;;;;;;;;;;5012257;28;20041;-87
2023/08/22 07:14:21;;;;;;;5.60;4.72;;;;;;;;;;4987232;28;20037;-87
2023/08/22 07:16:47;;;;;;;11.75;4.95;;;;;;;;;;4989721;28;20294;-88
2023/08/22 07:19:12;;;;;;;6.80;4.55;;;;;;;;;;4985620;28;20034;-88
2023/08/22 07:21:38;;;;;;;6.13;4.47;;;;;;;;;;4991359;28;20350;-88
2023/08/22 07:24:04;;;;;;;7.55;5.18;;;;;;;;;;4987406;28;20117;-87
2023/08/22 07:26:30;;;;;;;6.63;4.35;;;;;;;;;;4995798;28;20053;-87
2023/08/22 07:28:55;;;;;;;9.60;4.80;;;;;;;;;;4987999;28;20524;-88
2023/08/22 07:31:20;;;;;;;7.47;5.00;;;;;;;;;;4992538;28;20049;-88
2023/08/22 07:33:46;;;;;;;7.40;4.28;;;;;;;;;;4987766;28;20038;-88
2023/08/22 07:36:21;;;;;;;5.50;4.50;;;;;;;;;;5005375;28;20182;-88
2023/08/22 07:38:46;;;;;;;12.27;4.60;;;;;;;;;;4998880;28;20373;-86
2023/08/22 07:41:12;;;;;;;7.22;4.97;;;;;;;;;;4989218;28;20037;-88
2023/08/22 07:43:37;;;;;;;9.88;4.30;;;;;;;;;;4994491;28;20393;-88
2023/08/22 07:46:03;;;;;;;14.82;5.22;;;;;;;;;;4992141;28;20037;-87
2023/08/22 07:48:28;;;;;;;13.88;4.30;;;;;;;;;;4990688;28;20053;-88
2023/08/22 07:50:56;;;;;;;6.63;4.45;;;;;;;;;;4992402;28;20121;-88
2023/08/22 07:53:22;;;;;;;6.38;4.47;;;;;;;;;;4989580;28;20117;-88
2023/08/22 07:55:47;;;;;;;6.25;4.15;;;;;;;;;;4994241;28;20034;-88
2023/08/22 07:58:13;;;;;;;8.40;4.72;;;;;;;;;;4994477;28;20049;-88
2023/08/22 08:00:38;;;;;;;9.05;4.28;;;;;;;;;;4984869;28;20124;-88
2023/08/22 08:03:04;;;;;;;9.35;4.95;;;;;;;;;;4991291;28;20045;-88
2023/08/22 08:05:29;;;;;;;7.15;5.60;;;;;;;;;;4993218;28;20053;-87
2023/08/22 08:07:55;;;;;;;6.75;5.35;;;;;;;;;;4991852;28;20050;-88
2023/08/22 08:10:21;;;;;;;15.77;11.00;;;;;;;;;;4986964;28;20431;-86
2023/08/22 08:12:46;;;;;;;13.45;8.10;;;;;;;;;;4990810;28;20049;-90
2023/08/22 08:15:11;;;;;;;12.27;7.43;;;;;;;;;;4995279;28;20072;-91
2023/08/22 08:17:37;;;;;;;14.80;7.70;;;;;;;;;;4986193;28;20181;-90
2023/08/22 08:20:04;;;;;;;13.30;7.45;;;;;;;;;;4987763;28;20034;-91
2023/08/22 08:22:29;;;;;;;9.45;6.60;;;;;;;;;;4991154;28;20046;-90
2023/08/22 08:24:55;;;;;;;12.85;7.50;;;;;;;;;;4996740;28;20034;-89
2023/08/22 08:27:21;;;;;;;8.05;5.05;;;;;;;;;;4998072;28;20355;-90
2023/08/22 08:29:46;;;;;;;6.13;4.10;;;;;;;;;;4995250;28;20026;-91
2023/08/22 08:32:11;;;;;;;16.17;4.63;;;;;;;;;;4996223;28;20050;-90
2023/08/22 08:34:37;;;;;;;7.35;4.57;;;;;;;;;;4992966;28;20030;-90
2023/08/22 08:37:04;;;;;;;6.43;4.15;;;;;;;;;;4992330;28;20057;-91
2023/08/22 08:39:29;;;;;;;9.93;4.07;;;;;;;;;;4994484;28;20066;-91
2023/08/22 08:42:06;;;;;;;4.30;3.88;;;;;;;;;;5001226;28;20033;-90
2023/08/22 08:44:33;;;;;;;9.18;3.92;;;;;;;;;;4995758;28;20050;-90
2023/08/22 08:47:00;;;;;;;8.77;4.13;;;;;;;;;;5003921;28;20081;-90
2023/08/22 08:49:25;;;;;;;6.93;3.67;;;;;;;;;;4992916;28;20460;-90
2023/08/22 08:51:51;;;;;;;8.50;3.90;;;;;;;;;;4998727;28;20031;-90
2023/08/22 08:54:18;;;;;;;4.88;3.70;;;;;;;;;;4996422;28;20041;-90
2023/08/22 08:56:44;;;;;;;9.55;4.30;;;;;;;;;;5002676;28;20032;-91
2023/08/22 08:59:09;;;;;;;10.32;3.85;;;;;;;;;;4998737;28;20098;-90
2023/08/22 09:01:36;;;;;;;12.80;4.43;;;;;;;;;;5006823;28;20048;-90
2023/08/22 09:04:02;;;;;;;5.80;4.55;;;;;;;;;;4998702;28;20066;-90
2023/08/22 09:06:27;;;;;;;8.32;4.10;;;;;;;;;;5002336;28;20050;-90
2023/08/22 09:09:12;;;;;;;9.57;4.65;;;;;;;;;;4999768;28;20105;-90
2023/08/22 09:11:45;;;;;;;8.50;4.15;;;;;;;;;;5004798;28;20068;-90
2023/08/22 09:14:11;;;;;;;14.18;4.53;;;;;;;;;;5000092;28;20121;-89
2023/08/22 09:16:36;;;;;;;10.90;4.40;;;;;;;;;;5002137;28;20132;-90
2023/08/22 09:19:02;;;;;;;5.57;4.30;;;;;;;;;;5003215;28;20497;-90
2023/08/22 09:21:28;;;;;;;8.52;4.28;;;;;;;;;;5003051;28;20037;-90
2023/08/22 09:24:09;;;;;;;8.73;4.00;;;;;;;;;;5002187;28;20022;-90
2023/08/22 09:26:44;;;;;;;4.50;4.07;;;;;;;;;;5000812;28;20054;-90
2023/08/22 09:29:10;;;;;;;8.27;4.40;;;;;;;;;;5006193;28;20084;-90
2023/08/22 09:31:36;;;;;;;11.55;4.03;;;;;;;;;;5005835;28;20037;-90
2023/08/22 09:34:09;;;;;;;8.38;4.30;;;;;;;;;;4996832;28;20034;-89
2023/08/22 09:36:42;;;;;;;6.13;4.50;;;;;;;;;;5000247;28;20092;-90
2023/08/22 09:39:12;;;;;;;9.50;4.10;;;;;;;;;;4994595;28;20014;-90
2023/08/22 09:41:38;;;;;;;13.75;5.00;;;;;;;;;;4992791;28;20112;-90
2023/08/22 09:44:05;;;;;;;18.50;4.75;;;;;;;;;;4992714;28;20066;-90
2023/08/22 09:46:31;;;;;;;6.70;4.28;;;;;;;;;;5005005;28;20069;-89
2023/08/22 09:48:59;;;;;;;7.65;4.30;;;;;;;;;;4995167;28;20054;-90
2023/08/22 09:51:25;;;;;;;9.38;4.72;;;;;;;;;;4997066;28;20042;-90
2023/08/22 09:53:52;;;;;;;5.85;4.32;;;;;;;;;;4994668;28;20026;-90
2023/08/22 09:56:19;;;;;;;7.38;4.43;;;;;;;;;;4999890;28;20474;-90
2023/08/22 09:58:45;;;;;;;7.88;4.15;;;;;;;;;;4996587;28;20042;-90
2023/08/22 10:01:16;;;;;;;7.78;4.00;;;;;;;;;;4996543;28;20038;-89
2023/08/22 10:03:43;;;;;;;10.73;4.97;;;;;;;;;;4993335;28;20125;-89
2023/08/22 10:06:11;;;;;;;11.27;4.57;;;;;;;;;;4992178;28;20018;-90
2023/08/22 10:08:37;;;;;;;11.07;5.05;;;;;;;;;;4998849;28;20081;-89
2023/08/22 10:11:05;;;;;;;12.25;5.00;;;;;;;;;;4991788;28;20046;-89
2023/08/22 10:13:31;;;;;;;8.52;5.05;;;;;;;;;;4989357;28;20121;-89
2023/08/22 10:15:57;;;;;;;8.18;4.43;;;;;;;;;;4997185;28;20047;-89
2023/08/22 10:18:24;;;;;;;7.45;4.53;;;;;;;;;;4986357;28;20413;-90
2023/08/22 10:20:49;;;;;;;10.23;4.85;;;;;;;;;;4997745;28;20061;-89
2023/08/22 10:23:15;;;;;;;9.38;5.18;;;;;;;;;;4992024;28;20500;-89
2023/08/22 10:25:50;;;;;;;8.02;5.30;;;;;;;;;;4998346;28;20560;-89
2023/08/22 10:28:17;;;;;;;13.27;5.35;;;;;;;;;;4993688;28;20022;-89
2023/08/22 10:31:03;;;;;;;7.35;4.30;;;;;;;;;;4997343;28;20139;-89
2023/08/22 10:33:28;;;;;;;7.88;4.80;;;;;;;;;;4992620;28;20042;-89
2023/08/22 10:36:16;;;;;;;9.02;5.15;;;;;;;;;;5002276;28;20025;-89
2023/08/22 10:39:00;;;;;;;5.80;4.80;;;;;;;;;;5002575;28;20048;-89
2023/08/22 10:41:45;;;;;;;7.38;4.60;;;;;;;;;;4987319;28;20096;-89
2023/08/22 10:44:19;;;;;;;13.18;4.70;;;;;;;;;;4988446;28;20093;-89
2023/08/22 10:47:01;;;;;;;6.20;4.88;;;;;;;;;;4992670;28;20283;-89
2023/08/22 10:49:31;;;;;;;8.57;4.57;;;;;;;;;;4990277;28;20045;-89
2023/08/22 10:52:07;;;;;;;10.43;5.32;;;;;;;;;;4991927;28;20190;-89
2023/08/22 10:55:06;;;;;;;9.45;4.50;;;;;;;;;;4994903;28;20496;-89
2023/08/22 10:57:36;;;;;;;11.35;4.63;;;;;;;;;;4985986;28;20042;-89
2023/08/22 11:02:37;;;;;;;8.90;4.70;;;;;;;;;;4990624;28;20038;-89
2023/08/22 11:05:08;;;;;;;8.88;4.80;;;;;;;;;;4990658;28;20524;-89
2023/08/22 11:07:34;;;;;;;12.40;4.97;;;;;;;;;;4991647;28;20073;-89
2023/08/22 11:09:59;;;;;;;11.70;4.57;;;;;;;;;;4996128;28;20042;-89
2023/08/22 11:12:26;;;;;;;8.73;5.13;;;;;;;;;;4994699;28;20034;-89
2023/08/22 11:14:53;;;;;;;6.63;4.63;;;;;;;;;;4993457;28;20026;-89
2023/08/22 11:17:20;;;;;;;11.80;5.38;;;;;;;;;;4993648;28;20549;-87
2023/08/22 11:19:47;;;;;;;9.23;4.47;;;;;;;;;;4996767;28;20054;-89
2023/08/22 11:22:14;;;;;;;8.05;4.85;;;;;;;;;;4991505;28;20039;-90
2023/08/22 11:24:46;;;;;;;7.18;4.82;;;;;;;;;;4987133;28;20457;-91
2023/08/22 11:27:15;;;;;;;10.02;4.35;;;;;;;;;;4991781;28;20057;-90
2023/08/22 11:29:45;;;;;;;9.15;4.95;;;;;;;;;;5003070;28;20033;-89
2023/08/22 11:32:33;;;;;;;11.45;4.57;;;;;;;;;;4986165;28;20030;-89
2023/08/22 11:35:03;;;;;;;6.85;4.72;;;;;;;;;;4988471;28;20038;-90
2023/08/22 11:37:31;;;;;;;7.68;4.40;;;;;;;;;;4983930;28;20043;-90
2023/08/22 11:40:00;;;;;;;7.32;4.60;;;;;;;;;;4983376;28;20046;-89
2023/08/22 11:42:29;;;;;;;13.57;4.60;;;;;;;;;;4990885;28;20064;-88
2023/08/22 11:45:03;;;;;;;11.15;4.75;;;;;;;;;;4995676;28;20034;-89
2023/08/22 11:47:43;;;;;;;13.18;4.78;;;;;;;;;;4990808;28;20054;-89
2023/08/22 11:50:15;;;;;;;5.63;4.40;;;;;;;;;;4991986;28;20038;-89
2023/08/22 11:52:41;;;;;;;7.53;4.78;;;;;;;;;;5007434;28;20061;-89
2023/08/22 11:55:08;;;;;;;8.90;4.32;;;;;;;;;;4985019;28;20042;-90
2023/08/22 11:57:43;;;;;;;12.85;4.97;;;;;;;;;;4972797;28;20043;-88
2023/08/22 12:00:13;;;;;;;7.80;4.70;;;;;;;;;;4966236;28;20832;-89
2023/08/22 12:02:43;;;;;;;9.05;5.05;;;;;;;;;;4989209;28;20033;-89
2023/08/22 12:05:09;;;;;;;9.13;4.35;;;;;;;;;;4996348;28;20115;-89
2023/08/22 12:07:43;;;;;;;10.35;5.00;;;;;;;;;;4995414;28;20053;-89
2023/08/22 12:10:12;;;;;;;5.38;4.50;;;;;;;;;;4990231;28;20050;-89
2023/08/22 12:12:38;;;;;;;7.07;4.93;;;;;;;;;;4996463;28;20547;-88
2023/08/22 12:15:21;;;;;;;7.72;4.47;;;;;;;;;;4989170;28;20068;-89
2023/08/22 12:17:46;;;;;;;5.72;4.50;;;;;;;;;;4998395;28;20056;-89
2023/08/22 12:20:12;;;;;;;7.38;4.85;;;;;;;;;;4996279;28;20065;-89
2023/08/22 12:22:37;;;;;;;9.55;4.55;;;;;;;;;;4993051;28;20030;-90
2023/08/22 12:25:02;;;;;;;6.13;4.57;;;;;;;;;;4981461;28;20050;-89
2023/08/22 12:27:28;;;;;;;6.20;4.47;;;;;;;;;;4988661;28;20131;-89
2023/08/22 12:29:53;;;;;;;7.95;4.78;;;;;;;;;;4994948;28;20014;-89
2023/08/22 12:32:19;;;;;;;8.98;4.70;;;;;;;;;;4990734;28;20145;-89
2023/08/22 12:34:44;;;;;;;9.52;4.25;;;;;;;;;;4997648;28;20153;-89
2023/08/22 12:37:09;;;;;;;5.88;4.47;;;;;;;;;;4992123;28;20044;-89
2023/08/22 12:39:35;;;;;;;11.35;5.03;;;;;;;;;;4999372;28;20107;-88
2023/08/22 12:42:01;;;;;;;8.15;4.60;;;;;;;;;;4998254;28;20438;-88
2023/08/22 12:44:26;;;;;;;8.18;4.68;;;;;;;;;;4994207;28;20125;-90
2023/08/22 12:46:54;;;;;;;5.15;4.45;;;;;;;;;;4980626;28;20046;-89
2023/08/22 12:49:19;;;;;;;10.40;4.30;;;;;;;;;;4985652;28;20034;-88
2023/08/22 12:51:45;;;;;;;9.30;4.38;;;;;;;;;;4981766;28;20058;-89
2023/08/22 12:54:10;;;;;;;5.80;4.43;;;;;;;;;;4991089;28;20036;-88
2023/08/22 12:56:36;;;;;;;5.53;4.20;;;;;;;;;;4993970;28;20084;-89
2023/08/22 12:59:01;;;;;;;6.82;4.30;;;;;;;;;;4997841;28;20122;-89
2023/08/22 13:01:27;;;;;;;5.70;4.40;;;;;;;;;;5002067;28;20077;-89
2023/08/22 13:03:52;;;;;;;6.32;4.57;;;;;;;;;;5000845;28;20034;-89
2023/08/22 13:06:19;;;;;;;9.45;4.50;;;;;;;;;;4994889;28;20104;-90
2023/08/22 13:08:44;;;;;;;7.15;4.65;;;;;;;;;;5001865;28;20022;-89
2023/08/22 13:11:10;;;;;;;7.00;4.03;;;;;;;;;;5008990;28;20023;-88
2023/08/22 13:13:35;;;;;;;8.55;4.47;;;;;;;;;;5017322;28;20033;-88
2023/08/22 13:16:00;;;;;;;10.93;4.70;;;;;;;;;;5017441;28;20030;-88
2023/08/22 13:18:26;;;;;;;5.97;4.70;;;;;;;;;;5020227;28;20042;-88
2023/08/22 13:20:51;;;;;;;4.72;4.28;;;;;;;;;;5015783;28;20019;-87
2023/08/22 13:23:16;;;;;;;7.65;4.53;;;;;;;;;;4993914;28;20336;-89
2023/08/22 13:25:42;;;;;;;8.50;5.18;;;;;;;;;;4989298;28;20042;-89
2023/08/22 13:28:07;;;;;;;9.55;5.20;;;;;;;;;;4996004;28;20080;-89
2023/08/22 13:30:33;;;;;;;6.45;4.53;;;;;;;;;;4999550;28;20055;-89
2023/08/22 13:32:58;;;;;;;7.63;5.00;;;;;;;;;;4992018;28;20966;-89
2023/08/22 13:35:23;;;;;;;8.05;4.50;;;;;;;;;;4986287;28;20113;-89
2023/08/22 13:37:50;;;;;;;5.70;4.57;;;;;;;;;;4989503;28;20038;-89
2023/08/22 13:40:15;;;;;;;8.35;4.93;;;;;;;;;;4989662;28;20103;-89
2023/08/22 13:42:41;;;;;;;7.50;4.22;;;;;;;;;;5000114;28;20619;-89
2023/08/22 13:45:06;;;;;;;7.60;4.90;;;;;;;;;;4986404;28;20052;-89
2023/08/22 13:47:32;;;;;;;8.80;4.80;;;;;;;;;;4993303;28;20435;-89
2023/08/22 13:49:57;;;;;;;8.50;4.68;;;;;;;;;;4988037;28;20057;-90
2023/08/22 13:52:26;;;;;;;8.00;4.80;;;;;;;;;;4994348;28;20038;-89
2023/08/22 13:54:51;;;;;;;8.68;4.70;;;;;;;;;;4984527;28;20042;-89
2023/08/22 13:57:17;;;;;;;5.13;4.50;;;;;;;;;;4992839;28;20447;-87
2023/08/22 13:59:44;;;;;;;8.27;4.55;;;;;;;;;;5000488;28;20022;-90
2023/08/22 14:02:09;;;;;;;7.45;4.80;;;;;;;;;;4994509;28;20129;-89
2023/08/22 14:04:34;;;;;;;8.07;4.50;;;;;;;;;;5032883;23;20061;-81
2023/08/22 14:07:00;;;;;;;13.77;4.60;;;;;;;;;;5033776;28;20042;-82
2023/08/22 14:09:25;;;;;;;5.80;4.40;;;;;;;;;;5040146;28;20029;-79
2023/08/22 14:11:50;;;;;;;10.63;4.25;;;;;;;;;;5039295;28;20021;-80
2023/08/22 14:14:16;;;;;;;11.45;4.50;;;;;;;;;;5026267;28;20121;-81
2023/08/22 14:16:42;;;;;;;9.52;4.43;;;;;;;;;;5022140;28;20030;-82
2023/08/22 14:19:07;;;;;;;10.07;4.45;;;;;;;;;;5019889;28;20042;-81
2023/08/22 14:21:32;;;;;;;6.40;4.30;;;;;;;;;;5020222;28;20125;-82
2023/08/22 14:23:58;;;;;;;9.05;4.88;;;;;;;;;;5038421;28;20037;-79
2023/08/22 14:26:23;;;;;;;8.75;4.57;;;;;;;;;;5021733;28;20596;-81
2023/08/22 14:28:48;;;;;;;8.95;4.20;;;;;;;;;;5022750;28;20042;-80
2023/08/22 14:31:14;;;;;;;4.53;3.97;;;;;;;;;;5018888;28;20036;-82
2023/08/22 14:33:39;;;;;;;5.13;4.03;;;;;;;;;;5017098;28;20479;-82
2023/08/22 14:36:06;;;;;;;12.65;4.80;;;;;;;;;;5018401;28;20014;-82
2023/08/22 14:38:33;;;;;;;4.57;4.18;;;;;;;;;;5029025;28;20036;-82